createdAt,value
2022-08-04T00:00:10.609Z,64.97
2022-08-04T00:05:55.414Z,65.04
2022-08-04T00:11:01.467Z,65.18
2022-08-04T00:16:08.946Z,65.17
2022-08-04T00:21:19.286Z,65.47
2022-08-04T00:26:23.425Z,65.44
2022-08-04T00:31:53.944Z,65.61
2022-08-04T00:36:56.536Z,65.86
2022-08-04T00:42:59.159Z,65.93
2022-08-04T00:48:27.020Z,66.30
2022-08-04T00:54:20.504Z,66.43
2022-08-04T00:59:54.538Z,66.53
2022-08-04T01:05:07.509Z,66.40
2022-08-04T01:10:24.707Z,66.43
2022-08-04T01:15:59.958Z,66.45
2022-08-04T01:21:37.376Z,66.44
2022-08-04T01:26:53.800Z,66.45
2022-08-04T01:32:33.482Z,66.15
2022-08-04T01:38:20.064Z,66.25
2022-08-04T01:43:27.910Z,66.39
2022-08-04T01:48:33.019Z,66.48
2022-08-04T01:53:42.950Z,66.52
2022-08-04T01:58:47.163Z,66.81
2022-08-04T02:04:21.833Z,66.71
2022-08-04T02:10:03.641Z,66.82
2022-08-04T02:15:36.424Z,66.86
2022-08-04T02:20:48.857Z,66.89
2022-08-04T02:26:03.141Z,66.91
2022-08-04T02:31:16.055Z,66.87
2022-08-04T02:36:32.169Z,66.74
2022-08-04T02:41:37.212Z,66.64
2022-08-04T02:46:43.092Z,66.60
2022-08-04T02:51:51.764Z,66.67
2022-08-04T02:56:58.003Z,66.68
2022-08-04T03:02:01.518Z,66.91
2022-08-04T03:07:29.716Z,66.81
2022-08-04T03:13:11.081Z,66.75
2022-08-04T03:18:41.974Z,66.89
2022-08-04T03:23:45.183Z,66.88
2022-08-04T03:29:35.817Z,66.78
2022-08-04T03:35:22.873Z,66.80
2022-08-04T03:40:44.488Z,66.68
2022-08-04T03:46:33.670Z,66.60
2022-08-04T03:52:01.575Z,66.61
2022-08-04T03:57:26.780Z,66.94
2022-08-04T04:02:45.584Z,66.88
2022-08-04T04:08:35.362Z,66.33
2022-08-04T04:14:01.713Z,66.63
2022-08-04T04:19:20.235Z,66.63
2022-08-04T04:24:59.739Z,66.17
2022-08-04T04:30:27.253Z,66.09
2022-08-04T04:35:53.848Z,66.06
2022-08-04T04:41:30.982Z,65.88
2022-08-04T04:48:01.685Z,65.80
2022-08-04T04:53:05.050Z,65.50
2022-08-04T04:58:14.936Z,65.36
2022-08-04T05:04:02.566Z,65.29
2022-08-04T05:10:00.186Z,65.12
2022-08-04T05:15:08.877Z,64.80
2022-08-04T05:20:31.554Z,64.51
2022-08-04T05:25:59.374Z,64.33
2022-08-04T05:31:12.787Z,64.18
2022-08-04T05:36:40.546Z,64.10
2022-08-04T05:41:48.081Z,63.78
2022-08-04T05:47:00.369Z,63.68
2022-08-04T05:52:05.969Z,63.49
2022-08-04T05:57:10.848Z,63.31
2022-08-04T06:02:18.156Z,63.34
2022-08-04T06:07:21.826Z,63.24
2022-08-04T06:12:38.158Z,63.47
2022-08-04T06:18:33.857Z,63.33
2022-08-04T06:23:33.593Z,63.54
2022-08-04T06:28:38.273Z,63.45
2022-08-04T06:33:54.305Z,63.49
2022-08-04T06:39:01.327Z,63.19
2022-08-04T06:44:10.314Z,62.43
2022-08-04T06:49:15.785Z,61.51
2022-08-04T06:54:19.300Z,60.78
2022-08-04T06:59:23.339Z,60.10
2022-08-04T07:04:26.951Z,59.75
2022-08-04T07:09:32.116Z,58.92
2022-08-04T07:14:36.724Z,58.32
2022-08-04T07:19:40.367Z,57.46
2022-08-04T07:24:43.984Z,56.25
2022-08-04T07:29:48.947Z,54.56
2022-08-04T07:34:53.554Z,54.06
2022-08-04T07:40:01.380Z,53.58
2022-08-04T07:45:06.596Z,52.34
2022-08-04T07:50:17.134Z,51.90
2022-08-04T07:55:22.063Z,50.97
2022-08-04T08:00:27.115Z,50.67
2022-08-04T08:05:31.228Z,50.23
2022-08-04T08:10:34.880Z,49.31
2022-08-04T08:15:39.524Z,48.06
2022-08-04T08:20:46.606Z,47.10
2022-08-04T08:25:50.205Z,47.42
2022-08-04T08:30:53.863Z,46.81
2022-08-04T08:36:38.371Z,46.79
2022-08-04T08:42:21.981Z,46.17
2022-08-04T08:48:07.140Z,45.44
2022-08-04T08:53:42.754Z,44.42
2022-08-04T08:59:33.386Z,43.72
2022-08-04T09:05:10.685Z,43.09
2022-08-04T09:10:41.540Z,42.77
2022-08-04T09:16:00.523Z,42.38
2022-08-04T09:21:34.127Z,42.63
2022-08-04T09:26:59.731Z,41.42
2022-08-04T09:32:28.584Z,40.85
2022-08-04T09:37:52.806Z,40.43
2022-08-04T09:43:25.999Z,38.82
2022-08-04T09:49:00.042Z,39.06
2022-08-04T09:54:29.395Z,38.11
2022-08-04T10:00:14.001Z,38.12
2022-08-04T10:05:48.987Z,38.31
2022-08-04T10:11:12.472Z,37.87
2022-08-04T10:16:34.220Z,37.99
2022-08-04T10:21:50.649Z,37.52
2022-08-04T10:27:17.704Z,37.33
2022-08-04T10:32:28.260Z,37.78
2022-08-04T10:37:58.969Z,37.28
2022-08-04T10:43:21.005Z,37.16
2022-08-04T10:48:54.200Z,37.24
2022-08-04T10:54:13.693Z,37.47
2022-08-04T10:59:26.734Z,37.56
2022-08-04T11:04:49.087Z,36.47
2022-08-04T11:09:53.218Z,36.41
2022-08-04T11:15:27.765Z,36.60
2022-08-04T11:20:43.874Z,36.38
2022-08-04T11:26:15.040Z,36.12
2022-08-04T11:31:32.724Z,35.47
2022-08-04T11:37:14.399Z,36.07
2022-08-04T11:42:28.462Z,35.67
2022-08-04T11:47:55.941Z,35.26
2022-08-04T11:53:01.737Z,34.89
2022-08-04T11:58:05.537Z,35.03
2022-08-04T12:03:33.528Z,34.63
2022-08-04T12:09:37.065Z,35.06
2022-08-04T12:14:44.656Z,34.83
2022-08-04T12:20:04.065Z,33.53
2022-08-04T12:25:38.371Z,34.15
2022-08-04T12:30:59.688Z,34.54
2022-08-04T12:36:21.530Z,34.67
2022-08-04T12:41:36.344Z,34.26
2022-08-04T12:46:46.933Z,34.41
2022-08-04T12:52:07.798Z,34.33
2022-08-04T12:57:17.100Z,34.28
2022-08-04T13:02:37.508Z,34.03
2022-08-04T13:07:53.522Z,34.11
2022-08-04T13:13:01.975Z,34.26
2022-08-04T13:18:15.261Z,34.30
2022-08-04T13:23:21.954Z,34.40
2022-08-04T13:28:28.981Z,34.56
2022-08-04T13:33:38.214Z,34.26
2022-08-04T13:38:55.719Z,33.87
2022-08-04T13:44:19.703Z,33.34
2022-08-04T13:49:37.792Z,33.12
2022-08-04T13:54:48.290Z,32.40
2022-08-04T14:00:07.711Z,32.88
2022-08-04T14:05:28.802Z,32.08
2022-08-04T14:10:35.200Z,31.23
2022-08-04T14:16:00.999Z,31.64
2022-08-04T14:21:18.131Z,32.10
2022-08-04T14:26:31.366Z,32.31
2022-08-04T14:31:37.308Z,31.98
2022-08-04T14:37:17.123Z,31.66
2022-08-04T14:42:55.644Z,31.91
2022-08-04T14:48:02.641Z,31.52
2022-08-04T14:53:14.340Z,30.99
2022-08-04T14:58:35.157Z,31.13
2022-08-04T15:03:50.182Z,31.52
2022-08-04T15:09:10.239Z,31.66
2022-08-04T15:14:35.819Z,31.36
2022-08-04T15:19:38.002Z,31.33
2022-08-04T15:24:41.469Z,32.31
2022-08-04T15:30:00.555Z,33.03
2022-08-04T15:35:12.593Z,33.38
2022-08-04T15:40:33.374Z,33.43
2022-08-04T15:46:41.578Z,32.94
2022-08-04T15:51:30.391Z,32.37
2022-08-04T15:56:36.028Z,31.98
2022-08-04T16:01:39.514Z,31.66
2022-08-04T16:06:44.471Z,31.44
2022-08-04T16:11:47.938Z,31.13
2022-08-04T16:16:51.675Z,30.50
2022-08-04T16:22:00.175Z,30.23
2022-08-04T16:27:06.990Z,30.17
2022-08-04T16:32:15.918Z,29.84
2022-08-04T16:37:20.860Z,29.12
2022-08-04T16:42:30.902Z,29.30
2022-08-04T16:47:49.274Z,29.25
2022-08-04T16:52:55.493Z,29.19
2022-08-04T16:57:59.409Z,29.13
2022-08-04T17:03:07.538Z,29.12
2022-08-04T17:14:02.348Z,29.36
2022-08-04T17:19:04.474Z,29.49
2022-08-04T17:24:15.996Z,29.46
2022-08-04T17:29:21.887Z,29.66
2022-08-04T17:34:26.666Z,29.94
2022-08-04T17:39:38.210Z,30.25
2022-08-04T17:44:42.022Z,30.84
2022-08-04T17:49:53.334Z,31.33
2022-08-04T17:55:02.841Z,32.23
2022-08-04T18:00:08.054Z,33.21
2022-08-04T18:06:01.670Z,34.33
2022-08-04T18:10:56.961Z,35.66
2022-08-04T18:16:06.213Z,36.52
2022-08-04T18:21:18.217Z,37.96
2022-08-04T18:26:23.812Z,39.76
2022-08-04T18:31:27.908Z,41.10
2022-08-04T18:36:37.841Z,41.41
2022-08-04T18:42:02.561Z,42.19
2022-08-04T18:47:22.184Z,42.96
2022-08-04T18:52:26.632Z,43.74
2022-08-04T18:57:59.195Z,44.24
2022-08-04T19:02:57.302Z,44.44
2022-08-04T19:08:11.194Z,44.70
2022-08-04T19:13:26.944Z,44.94
2022-08-04T19:18:32.666Z,45.71
2022-08-04T19:24:28.060Z,45.77
2022-08-04T19:29:03.898Z,46.06
2022-08-04T19:34:12.783Z,46.40
2022-08-04T19:39:16.265Z,46.94
2022-08-04T19:44:19.916Z,47.79
2022-08-04T19:50:05.255Z,48.13
2022-08-04T19:54:50.766Z,48.22
2022-08-04T19:59:55.014Z,48.29
2022-08-04T20:04:58.762Z,48.40
2022-08-04T20:10:04.193Z,48.74
2022-08-04T20:15:11.025Z,48.94
2022-08-04T20:20:18.384Z,49.12
2022-08-04T20:25:36.770Z,49.41
2022-08-04T20:30:42.324Z,49.74
2022-08-04T20:36:00.706Z,50.10
2022-08-04T20:41:09.121Z,50.81
2022-08-04T20:46:18.659Z,52.01
2022-08-04T20:51:33.761Z,52.08
2022-08-04T20:56:50.592Z,52.51
2022-08-04T21:01:55.296Z,52.97
2022-08-04T21:07:02.268Z,52.49
2022-08-04T21:12:07.886Z,52.54
2022-08-04T21:17:12.194Z,52.42
2022-08-04T21:22:29.818Z,52.18
2022-08-04T21:27:39.590Z,52.22
2022-08-04T21:32:43.190Z,52.13
2022-08-04T21:37:56.449Z,52.26
2022-08-04T21:43:00.835Z,52.47
2022-08-04T21:48:07.084Z,52.78
2022-08-04T21:53:12.844Z,53.17
2022-08-04T21:58:16.336Z,53.16
2022-08-04T22:03:23.486Z,53.29
2022-08-04T22:08:49.150Z,53.28
2022-08-04T22:14:10.583Z,53.26
2022-08-04T22:19:15.115Z,53.24
2022-08-04T22:24:27.391Z,53.24
2022-08-04T22:29:33.444Z,53.12
2022-08-04T22:34:45.756Z,53.08
2022-08-04T22:39:57.212Z,53.01
2022-08-04T22:45:00.809Z,52.85
2022-08-04T22:50:27.177Z,52.73
2022-08-04T22:56:07.656Z,52.58
2022-08-04T23:00:58.202Z,52.46
2022-08-04T23:06:10.490Z,52.42
2022-08-04T23:11:15.032Z,52.44
2022-08-04T23:16:19.779Z,52.47
2022-08-04T23:21:24.677Z,52.56
2022-08-04T23:26:28.662Z,52.62
2022-08-04T23:31:40.900Z,52.56
2022-08-04T23:36:45.146Z,52.49
2022-08-04T23:41:55.360Z,52.44
2022-08-04T23:47:03.298Z,52.40
2022-08-04T23:52:07.332Z,52.47
2022-08-04T23:57:26.980Z,52.61
